createdAt,value
2024-01-24T00:00:10.165Z,22.52
2024-01-24T00:02:38.670Z,22.50
2024-01-24T00:05:07.992Z,22.51
2024-01-24T00:07:36.204Z,22.50
2024-01-24T00:10:04.896Z,22.49
2024-01-24T00:12:34.614Z,22.49
2024-01-24T00:15:02.813Z,22.49
2024-01-24T00:17:30.990Z,22.48
2024-01-24T00:19:59.138Z,22.48
2024-01-24T00:22:27.265Z,22.47
2024-01-24T00:24:55.384Z,22.48
2024-01-24T00:27:23.669Z,22.48
2024-01-24T00:29:53.553Z,22.48
2024-01-24T00:32:21.755Z,22.49
2024-01-24T00:34:49.969Z,22.48
2024-01-24T00:37:18.197Z,22.48
2024-01-24T00:39:48.010Z,22.48
2024-01-24T00:42:16.167Z,22.48
2024-01-24T00:44:44.552Z,22.48
2024-01-24T00:47:14.077Z,22.47
2024-01-24T00:49:42.286Z,22.48
2024-01-24T00:52:10.457Z,22.49
2024-01-24T00:54:38.671Z,22.47
2024-01-24T00:57:07.022Z,22.48
2024-01-24T00:59:35.195Z,22.48
2024-01-24T01:02:03.931Z,22.48
2024-01-24T01:04:33.565Z,22.49
2024-01-24T01:07:01.815Z,22.47
2024-01-24T01:09:29.952Z,22.49
2024-01-24T01:11:58.183Z,22.48
2024-01-24T01:14:26.288Z,22.48
2024-01-24T01:16:54.777Z,22.48
2024-01-24T01:19:23.182Z,22.48
2024-01-24T01:21:53.111Z,22.48
2024-01-24T01:24:21.317Z,22.49
2024-01-24T01:26:49.413Z,22.49
2024-01-24T01:29:17.534Z,22.48
2024-01-24T01:31:45.698Z,22.49
2024-01-24T01:34:13.977Z,22.50
2024-01-24T01:36:42.147Z,22.50
2024-01-24T01:39:12.096Z,22.50
2024-01-24T01:41:40.285Z,22.51
2024-01-24T01:44:08.403Z,22.51
2024-01-24T01:46:37.392Z,22.51
2024-01-24T01:49:05.680Z,22.51
2024-01-24T01:51:33.932Z,22.51
2024-01-24T01:54:02.081Z,22.52
2024-01-24T01:56:31.621Z,22.51
2024-01-24T01:58:59.801Z,22.51
2024-01-24T02:01:27.990Z,22.51
2024-01-24T02:04:57.870Z,22.51
2024-01-24T02:07:26.139Z,22.50
2024-01-24T02:09:54.912Z,22.50
2024-01-24T02:12:25.401Z,22.51
2024-01-24T02:14:55.106Z,22.50
2024-01-24T02:17:23.272Z,22.50
2024-01-24T02:19:51.588Z,22.50
2024-01-24T02:22:20.089Z,22.51
2024-01-24T02:24:49.771Z,22.51
2024-01-24T02:27:18.006Z,22.51
2024-01-24T02:29:46.591Z,22.52
2024-01-24T02:32:14.694Z,22.51
2024-01-24T02:34:42.922Z,22.52
2024-01-24T02:37:11.285Z,22.53
2024-01-24T02:39:39.576Z,22.52
2024-01-24T02:42:09.797Z,22.53
2024-01-24T02:44:38.009Z,22.54
2024-01-24T02:47:06.324Z,22.54
2024-01-24T02:49:34.720Z,22.54
2024-01-24T02:52:03.402Z,22.54
2024-01-24T02:54:31.558Z,22.55
2024-01-24T02:56:59.691Z,22.54
2024-01-24T02:59:29.207Z,22.55
2024-01-24T03:01:57.380Z,22.53
2024-01-24T03:04:25.650Z,22.56
2024-01-24T03:06:56.502Z,22.53
2024-01-24T03:09:24.677Z,22.54
2024-01-24T03:11:53.062Z,22.54
2024-01-24T03:14:22.387Z,22.54
2024-01-24T03:16:51.883Z,22.55
2024-01-24T03:19:20.066Z,22.54
2024-01-24T03:21:48.954Z,22.55
2024-01-24T03:24:17.134Z,22.54
2024-01-24T03:26:45.332Z,22.55
2024-01-24T03:29:13.512Z,22.55
2024-01-24T03:31:44.325Z,22.55
2024-01-24T03:34:14.636Z,22.56
2024-01-24T03:36:43.017Z,22.56
2024-01-24T03:39:12.297Z,22.56
2024-01-24T03:41:40.637Z,22.57
2024-01-24T03:44:08.861Z,22.57
2024-01-24T03:46:37.040Z,22.57
2024-01-24T03:49:22.927Z,22.59
2024-01-24T03:51:51.229Z,22.58
2024-01-24T03:54:19.497Z,22.58
2024-01-24T03:56:47.632Z,22.59
2024-01-24T03:59:15.826Z,22.59
2024-01-24T04:01:44.136Z,22.59
2024-01-24T04:04:12.375Z,22.59
2024-01-24T04:06:42.190Z,22.59
2024-01-24T04:09:10.398Z,22.59
2024-01-24T04:11:39.825Z,22.59
2024-01-24T04:14:09.213Z,22.59
2024-01-24T04:16:40.727Z,22.59
2024-01-24T04:19:18.123Z,22.59
2024-01-24T04:21:47.745Z,22.58
2024-01-24T04:24:16.052Z,22.58
2024-01-24T04:26:44.527Z,22.59
2024-01-24T04:29:13.878Z,22.59
2024-01-24T04:31:43.363Z,22.59
2024-01-24T04:34:11.760Z,22.60
2024-01-24T04:36:40.041Z,22.60
2024-01-24T04:39:09.596Z,22.60
2024-01-24T04:41:40.800Z,22.59
2024-01-24T04:44:09.580Z,22.60
2024-01-24T04:46:37.691Z,22.60
2024-01-24T04:49:05.888Z,22.61
2024-01-24T04:51:34.334Z,22.61
2024-01-24T04:54:02.895Z,22.61
2024-01-24T04:56:32.537Z,22.60
2024-01-24T04:59:02.170Z,22.61
2024-01-24T05:01:30.744Z,22.61
2024-01-24T05:03:59.904Z,22.61
2024-01-24T05:06:28.376Z,22.59
2024-01-24T05:08:56.615Z,22.60
2024-01-24T05:11:24.840Z,22.60
2024-01-24T05:13:55.196Z,22.60
2024-01-24T05:16:23.401Z,22.59
2024-01-24T05:18:55.871Z,22.59
2024-01-24T05:21:24.170Z,22.58
2024-01-24T05:23:53.347Z,22.59
2024-01-24T05:26:21.564Z,22.58
2024-01-24T05:28:49.689Z,22.58
2024-01-24T05:31:19.958Z,22.59
2024-01-24T05:34:00.303Z,22.58
2024-01-24T05:36:28.827Z,22.57
2024-01-24T05:38:57.012Z,22.58
2024-01-24T05:41:24.197Z,22.57
2024-01-24T05:43:52.340Z,22.56
2024-01-24T05:46:21.909Z,22.58
2024-01-24T05:48:50.248Z,22.57
2024-01-24T05:51:18.614Z,22.58
2024-01-24T05:53:46.755Z,22.57
2024-01-24T05:56:14.847Z,22.57
2024-01-24T05:58:42.995Z,22.59
2024-01-24T06:01:11.534Z,22.58
2024-01-24T06:03:42.034Z,22.57
2024-01-24T06:06:10.456Z,22.56
2024-01-24T06:08:38.760Z,22.57
2024-01-24T06:11:06.999Z,22.57
2024-01-24T06:13:35.864Z,22.56
2024-01-24T06:16:04.158Z,22.56
2024-01-24T06:18:32.396Z,22.56
2024-01-24T06:21:02.289Z,22.57
2024-01-24T06:23:30.515Z,22.57
2024-01-24T06:25:58.758Z,22.58
2024-01-24T06:28:26.983Z,22.57
2024-01-24T06:30:55.229Z,22.56
2024-01-24T06:33:25.541Z,22.58
2024-01-24T06:35:53.924Z,22.58
2024-01-24T06:38:23.528Z,22.59
2024-01-24T06:40:51.723Z,22.60
2024-01-24T06:43:20.077Z,22.60
2024-01-24T06:45:48.229Z,22.60
2024-01-24T06:48:16.561Z,22.62
2024-01-24T06:50:44.930Z,22.60
2024-01-24T06:53:15.889Z,22.63
2024-01-24T06:55:46.188Z,22.64
2024-01-24T06:58:14.323Z,22.65
2024-01-24T07:00:43.233Z,22.65
2024-01-24T07:03:11.778Z,22.65
2024-01-24T07:05:39.984Z,22.65
2024-01-24T07:08:08.482Z,22.67
2024-01-24T07:10:36.592Z,22.69
2024-01-24T07:13:06.466Z,22.70
2024-01-24T07:15:34.738Z,22.70
2024-01-24T07:18:03.201Z,22.72
2024-01-24T07:20:31.495Z,22.73
2024-01-24T07:22:59.619Z,22.75
2024-01-24T07:25:27.721Z,22.76
2024-01-24T07:27:55.940Z,22.76
2024-01-24T07:30:26.228Z,22.77
2024-01-24T07:32:54.536Z,22.78
2024-01-24T07:35:22.763Z,22.79
2024-01-24T07:37:50.885Z,22.81
2024-01-24T07:40:19.464Z,22.82
2024-01-24T07:42:47.730Z,22.83
2024-01-24T07:45:16.375Z,22.83
2024-01-24T07:47:46.443Z,22.83
2024-01-24T07:50:14.739Z,22.85
2024-01-24T07:52:43.542Z,22.85
2024-01-24T07:55:13.249Z,22.86
2024-01-24T07:57:42.050Z,22.86
2024-01-24T08:00:17.286Z,22.87
2024-01-24T08:02:49.045Z,22.89
2024-01-24T08:05:19.898Z,22.88
2024-01-24T08:07:48.114Z,22.89
2024-01-24T08:10:16.935Z,22.89
2024-01-24T08:12:45.311Z,22.90
2024-01-24T08:15:13.674Z,22.91
2024-01-24T08:17:42.059Z,22.91
2024-01-24T08:20:12.873Z,22.92
2024-01-24T08:22:41.095Z,22.93
2024-01-24T08:25:10.376Z,22.94
2024-01-24T08:27:38.950Z,22.95
2024-01-24T08:30:08.676Z,22.96
2024-01-24T08:32:41.726Z,22.99
2024-01-24T08:35:20.690Z,23.00
2024-01-24T08:37:48.861Z,23.03
2024-01-24T08:40:18.355Z,23.04
2024-01-24T08:42:47.161Z,23.08
2024-01-24T08:45:15.475Z,23.11
2024-01-24T08:47:45.055Z,23.14
2024-01-24T08:50:13.699Z,23.15
2024-01-24T08:52:43.237Z,23.18
2024-01-24T08:55:14.837Z,23.23
2024-01-24T08:57:43.892Z,23.26
2024-01-24T09:00:12.958Z,23.29
2024-01-24T09:02:41.489Z,23.29
2024-01-24T09:05:48.354Z,23.34
2024-01-24T09:08:19.872Z,23.37
2024-01-24T09:10:48.011Z,23.40
2024-01-24T09:13:21.889Z,23.44
2024-01-24T09:15:50.297Z,23.46
2024-01-24T09:18:19.190Z,23.46
2024-01-24T09:20:47.891Z,23.45
2024-01-24T09:23:16.526Z,23.43
2024-01-24T09:25:46.270Z,23.43
2024-01-24T09:28:14.520Z,23.45
2024-01-24T09:30:42.773Z,23.47
2024-01-24T09:33:11.230Z,23.48
2024-01-24T09:35:39.603Z,23.48
2024-01-24T09:38:07.866Z,23.47
2024-01-24T09:40:36.082Z,23.47
2024-01-24T09:43:06.388Z,23.49
2024-01-24T09:45:34.724Z,23.49
2024-01-24T09:48:03.079Z,23.49
2024-01-24T09:50:31.330Z,23.47
2024-01-24T09:52:59.857Z,23.47
2024-01-24T09:55:28.930Z,23.47
2024-01-24T09:57:57.347Z,23.46
2024-01-24T10:00:27.100Z,23.46
2024-01-24T10:02:55.324Z,23.45
2024-01-24T10:05:25.895Z,23.46
2024-01-24T10:07:54.240Z,23.45
2024-01-24T10:10:22.447Z,23.46
2024-01-24T10:12:50.902Z,23.45
2024-01-24T10:15:19.430Z,23.44
2024-01-24T10:17:50.349Z,23.43
2024-01-24T10:20:43.940Z,23.43
2024-01-24T10:23:21.348Z,23.42
2024-01-24T10:25:49.914Z,23.41
2024-01-24T10:28:19.007Z,23.42
2024-01-24T10:30:48.644Z,23.41
2024-01-24T10:33:19.629Z,23.40
2024-01-24T10:35:48.595Z,23.39
2024-01-24T10:38:21.423Z,23.39
2024-01-24T10:40:49.713Z,23.39
2024-01-24T10:43:18.503Z,23.40
2024-01-24T10:45:47.159Z,23.39
2024-01-24T10:48:15.552Z,23.40
2024-01-24T10:50:45.534Z,23.39
2024-01-24T10:53:14.277Z,23.39
2024-01-24T10:55:42.822Z,23.39
2024-01-24T10:58:11.819Z,23.39
2024-01-24T11:00:40.664Z,23.39
2024-01-24T11:03:09.032Z,23.39
2024-01-24T11:05:42.167Z,23.45
2024-01-24T11:08:13.808Z,23.54
2024-01-24T11:10:42.782Z,23.56
2024-01-24T11:13:11.265Z,23.54
2024-01-24T11:15:41.790Z,23.53
2024-01-24T11:18:26.151Z,23.49
2024-01-24T11:20:55.029Z,23.47
2024-01-24T11:23:44.755Z,23.47
2024-01-24T11:26:13.424Z,23.46
2024-01-24T11:28:41.574Z,23.45
2024-01-24T11:31:10.352Z,23.45
2024-01-24T11:33:38.765Z,23.46
2024-01-24T11:36:08.735Z,23.45
2024-01-24T11:38:41.318Z,23.45
2024-01-24T11:41:24.003Z,23.46
2024-01-24T11:43:52.543Z,23.47
2024-01-24T11:46:21.145Z,23.47
2024-01-24T11:48:49.474Z,23.48
2024-01-24T11:51:18.995Z,23.48
2024-01-24T11:53:48.585Z,23.49
2024-01-24T11:56:16.930Z,23.49
2024-01-24T11:58:45.272Z,23.50
2024-01-24T12:01:14.052Z,23.51
2024-01-24T12:03:48.059Z,23.51
2024-01-24T12:06:16.366Z,23.52
2024-01-24T12:08:47.979Z,23.53
2024-01-24T12:11:19.896Z,23.54
2024-01-24T12:13:48.198Z,23.54
2024-01-24T12:16:16.490Z,23.55
2024-01-24T12:18:45.224Z,23.56
2024-01-24T12:21:14.008Z,23.55
2024-01-24T12:23:49.101Z,23.55
2024-01-24T12:26:17.672Z,23.55
2024-01-24T12:28:49.371Z,23.54
2024-01-24T12:31:18.099Z,23.55
2024-01-24T12:33:47.037Z,23.53
2024-01-24T12:36:15.275Z,23.54
2024-01-24T12:38:43.602Z,23.55
2024-01-24T12:41:11.939Z,23.54
2024-01-24T12:43:40.199Z,23.56
2024-01-24T12:46:10.773Z,23.58
2024-01-24T12:48:39.738Z,23.58
2024-01-24T12:52:04.366Z,23.57
2024-01-24T12:54:32.716Z,23.56
2024-01-24T12:57:00.850Z,23.55
2024-01-24T12:59:30.178Z,23.55
2024-01-24T13:02:00.839Z,23.53
2024-01-24T13:04:29.886Z,23.52
2024-01-24T13:06:58.253Z,23.52
2024-01-24T13:09:28.034Z,23.51
2024-01-24T13:11:57.415Z,23.48
2024-01-24T13:14:25.947Z,23.49
2024-01-24T13:16:54.036Z,23.47
2024-01-24T13:19:25.543Z,23.48
2024-01-24T13:21:53.919Z,23.45
2024-01-24T13:24:22.736Z,23.45
2024-01-24T13:26:51.096Z,23.46
2024-01-24T13:29:19.694Z,23.46
2024-01-24T13:31:48.991Z,23.47
2024-01-24T13:34:18.011Z,23.46
2024-01-24T13:37:06.166Z,23.46
2024-01-24T13:39:35.760Z,23.46
2024-01-24T13:42:05.440Z,23.46
2024-01-24T13:44:34.355Z,23.46
2024-01-24T13:47:02.594Z,23.45
2024-01-24T13:49:30.841Z,23.46
2024-01-24T13:52:00.567Z,23.46
2024-01-24T13:54:30.087Z,23.46
2024-01-24T13:56:58.484Z,23.46
2024-01-24T13:59:26.883Z,23.46
2024-01-24T14:01:59.983Z,23.46
2024-01-24T14:04:29.518Z,23.46
2024-01-24T14:07:16.639Z,23.45
2024-01-24T14:09:46.287Z,23.44
2024-01-24T14:12:14.572Z,23.44
2024-01-24T14:14:43.751Z,23.43
2024-01-24T14:17:13.441Z,23.46
2024-01-24T14:19:41.719Z,23.46
2024-01-24T14:22:10.077Z,23.47
2024-01-24T14:24:38.307Z,23.47
2024-01-24T14:27:08.088Z,23.48
2024-01-24T14:29:37.261Z,23.49
2024-01-24T14:32:07.458Z,23.52
2024-01-24T14:34:35.755Z,23.51
2024-01-24T14:37:10.222Z,23.53
2024-01-24T14:39:40.762Z,23.53
2024-01-24T14:42:10.834Z,23.54
2024-01-24T14:44:39.050Z,23.54
2024-01-24T14:47:07.440Z,23.56
2024-01-24T14:49:35.633Z,23.57
2024-01-24T14:52:04.864Z,23.58
2024-01-24T14:54:33.364Z,23.59
2024-01-24T14:57:01.724Z,23.59
2024-01-24T14:59:31.541Z,23.59
2024-01-24T15:01:59.722Z,23.60
2024-01-24T15:04:29.014Z,23.62
2024-01-24T15:06:57.311Z,23.62
2024-01-24T15:09:25.671Z,23.63
2024-01-24T15:11:54.256Z,23.63
2024-01-24T15:14:22.546Z,23.67
2024-01-24T15:16:52.737Z,23.73
2024-01-24T15:19:20.897Z,23.74
2024-01-24T15:21:50.008Z,23.72
2024-01-24T15:24:19.807Z,23.72
2024-01-24T15:26:48.032Z,23.70
2024-01-24T15:29:16.385Z,23.73
2024-01-24T15:31:44.686Z,23.73
2024-01-24T15:34:16.105Z,23.73
2024-01-24T15:36:45.257Z,23.72
2024-01-24T15:39:15.276Z,23.74
2024-01-24T15:41:43.518Z,23.74
2024-01-24T15:44:12.021Z,23.73
2024-01-24T15:46:40.236Z,23.74
2024-01-24T15:49:11.678Z,23.74
2024-01-24T15:51:41.471Z,23.74
2024-01-24T15:54:10.509Z,23.74
2024-01-24T15:56:38.706Z,23.74
2024-01-24T15:59:06.943Z,23.73
2024-01-24T16:01:35.353Z,23.77
2024-01-24T16:04:05.092Z,23.76
2024-01-24T16:07:26.095Z,23.77
2024-01-24T16:09:55.921Z,23.78
2024-01-24T16:12:24.192Z,23.78
2024-01-24T16:14:52.418Z,23.79
2024-01-24T16:17:20.661Z,23.79
2024-01-24T16:19:49.333Z,23.80
2024-01-24T16:23:13.222Z,23.82
2024-01-24T16:25:42.773Z,23.80
2024-01-24T16:28:12.777Z,23.81
2024-01-24T16:30:44.385Z,23.81
2024-01-24T16:33:12.915Z,23.82
2024-01-24T16:35:41.143Z,23.83
2024-01-24T16:38:09.684Z,23.87
2024-01-24T16:40:37.828Z,23.84
2024-01-24T16:43:07.646Z,23.83
2024-01-24T16:45:35.953Z,23.81
2024-01-24T16:48:04.191Z,23.81
2024-01-24T16:50:32.344Z,23.79
2024-01-24T16:53:00.504Z,23.78
2024-01-24T16:55:29.232Z,23.79
2024-01-24T16:57:57.935Z,23.78
2024-01-24T17:00:27.665Z,23.78
2024-01-24T17:02:58.486Z,23.75
2024-01-24T17:05:27.384Z,23.76
2024-01-24T17:07:55.582Z,23.76
2024-01-24T17:10:23.833Z,23.83
2024-01-24T17:12:52.070Z,23.88
2024-01-24T17:15:20.429Z,23.90
2024-01-24T17:17:49.969Z,23.88
2024-01-24T17:20:18.643Z,23.86
2024-01-24T17:23:16.067Z,23.83
2024-01-24T17:25:44.246Z,23.81
2024-01-24T17:28:12.418Z,23.80
2024-01-24T17:30:41.270Z,23.78
2024-01-24T17:33:10.980Z,23.78
2024-01-24T17:35:39.757Z,23.76
2024-01-24T17:38:08.039Z,23.76
2024-01-24T17:40:36.201Z,23.74
2024-01-24T17:43:04.517Z,23.73
2024-01-24T17:45:32.882Z,23.71
2024-01-24T17:48:01.123Z,23.70
2024-01-24T17:50:30.760Z,23.69
2024-01-24T17:53:35.954Z,23.69
2024-01-24T17:56:04.364Z,23.67
2024-01-24T17:58:34.325Z,23.66
2024-01-24T18:01:03.902Z,23.66
2024-01-24T18:03:32.273Z,23.66
2024-01-24T18:06:01.957Z,23.66
2024-01-24T18:08:30.070Z,23.65
2024-01-24T18:10:59.768Z,23.65
2024-01-24T18:13:29.067Z,23.63
2024-01-24T18:15:57.942Z,23.62
2024-01-24T18:18:27.358Z,23.61
2024-01-24T18:20:56.150Z,23.64
2024-01-24T18:23:29.748Z,23.66
2024-01-24T18:25:58.235Z,23.73
2024-01-24T18:28:26.455Z,23.72
2024-01-24T18:30:54.576Z,23.69
2024-01-24T18:33:23.567Z,23.69
2024-01-24T18:35:52.767Z,23.69
2024-01-24T18:38:20.910Z,23.68
2024-01-24T18:40:50.470Z,23.67
2024-01-24T18:43:18.964Z,23.67
2024-01-24T18:45:47.324Z,23.66
2024-01-24T18:48:19.763Z,23.66
2024-01-24T18:50:48.364Z,23.66
2024-01-24T18:53:16.742Z,23.66
2024-01-24T18:55:45.003Z,23.65
2024-01-24T18:58:14.995Z,23.64
2024-01-24T19:00:43.379Z,23.64
2024-01-24T19:03:12.361Z,23.66
2024-01-24T19:05:40.924Z,23.67
2024-01-24T19:08:11.973Z,23.68
2024-01-24T19:10:40.446Z,23.67
2024-01-24T19:13:08.640Z,23.67
2024-01-24T19:15:38.198Z,23.67
2024-01-24T19:18:14.022Z,23.66
2024-01-24T19:20:45.414Z,23.66
2024-01-24T19:23:21.586Z,23.67
2024-01-24T19:25:51.055Z,23.67
2024-01-24T19:28:23.740Z,23.66
2024-01-24T19:30:53.557Z,23.67
2024-01-24T19:33:21.805Z,23.68
2024-01-24T19:35:50.207Z,23.67
2024-01-24T19:38:19.715Z,23.66
2024-01-24T19:40:47.912Z,23.68
2024-01-24T19:43:16.035Z,23.67
2024-01-24T19:45:44.591Z,23.67
2024-01-24T19:48:14.955Z,23.65
2024-01-24T19:50:45.042Z,23.66
2024-01-24T19:53:27.545Z,23.67
2024-01-24T19:56:02.447Z,23.67
2024-01-24T19:58:31.968Z,23.63
2024-01-24T20:01:05.181Z,23.56
2024-01-24T20:03:35.156Z,23.51
2024-01-24T20:06:03.908Z,23.43
2024-01-24T20:08:32.037Z,23.36
2024-01-24T20:11:00.300Z,23.30
2024-01-24T20:13:29.140Z,23.25
2024-01-24T20:15:58.853Z,23.20
2024-01-24T20:18:27.547Z,23.17
2024-01-24T20:20:57.190Z,23.14
2024-01-24T20:23:27.824Z,23.11
2024-01-24T20:25:57.555Z,23.10
2024-01-24T20:28:26.440Z,23.08
2024-01-24T20:30:54.674Z,23.05
2024-01-24T20:33:23.223Z,23.02
2024-01-24T20:35:54.075Z,22.99
2024-01-24T20:38:24.490Z,22.95
2024-01-24T20:40:52.598Z,22.91
2024-01-24T20:43:20.835Z,22.88
2024-01-24T20:45:49.483Z,22.86
2024-01-24T20:48:18.367Z,22.83
2024-01-24T20:50:47.117Z,22.82
2024-01-24T20:53:18.913Z,22.80
2024-01-24T20:55:48.598Z,22.78
2024-01-24T20:58:16.781Z,22.77
2024-01-24T21:00:45.175Z,22.77
2024-01-24T21:03:13.572Z,22.78
2024-01-24T21:05:41.954Z,22.78
2024-01-24T21:08:10.387Z,22.79
2024-01-24T21:10:42.236Z,22.80
2024-01-24T21:13:18.547Z,22.78
2024-01-24T21:15:46.761Z,22.78
2024-01-24T21:18:15.515Z,22.77
2024-01-24T21:20:43.801Z,22.76
2024-01-24T21:23:12.518Z,22.76
2024-01-24T21:25:40.926Z,22.76
2024-01-24T21:28:09.753Z,22.77
2024-01-24T21:30:39.466Z,22.76
2024-01-24T21:33:07.639Z,22.77
2024-01-24T21:35:36.039Z,22.75
2024-01-24T21:38:04.345Z,22.75
2024-01-24T21:40:32.520Z,22.76
2024-01-24T21:43:00.745Z,22.77
2024-01-24T21:45:28.896Z,22.75
2024-01-24T21:47:58.530Z,22.76
2024-01-24T21:50:26.807Z,22.75
2024-01-24T21:52:55.014Z,22.76
2024-01-24T21:55:23.233Z,22.74
2024-01-24T21:57:53.539Z,22.75
2024-01-24T22:00:21.987Z,22.75
2024-01-24T22:02:50.259Z,22.75
2024-01-24T22:05:20.409Z,22.74
2024-01-24T22:07:50.853Z,22.74
2024-01-24T22:10:19.421Z,22.74
2024-01-24T22:12:47.724Z,22.74
2024-01-24T22:15:16.073Z,22.74
2024-01-24T22:17:44.334Z,22.74
2024-01-24T22:20:13.521Z,22.74
2024-01-24T22:25:16.264Z,22.74
2024-01-24T22:27:44.525Z,22.74
2024-01-24T22:30:14.069Z,22.73
2024-01-24T22:32:42.274Z,22.74
2024-01-24T22:35:11.014Z,22.75
2024-01-24T22:37:39.571Z,22.72
2024-01-24T22:40:10.488Z,22.74
2024-01-24T22:42:38.705Z,22.72
2024-01-24T22:45:07.613Z,22.72
2024-01-24T22:47:35.744Z,22.71
2024-01-24T22:50:04.935Z,22.71
2024-01-24T22:52:33.389Z,22.70
2024-01-24T22:55:01.615Z,22.68
2024-01-24T22:57:31.222Z,22.66
2024-01-24T22:59:59.433Z,22.65
2024-01-24T23:02:27.571Z,22.63
2024-01-24T23:04:56.930Z,22.61
2024-01-24T23:07:25.098Z,22.61
2024-01-24T23:09:53.702Z,22.60
2024-01-24T23:12:21.999Z,22.57
2024-01-24T23:14:51.592Z,22.56
2024-01-24T23:17:19.644Z,22.54
2024-01-24T23:19:48.048Z,22.53
2024-01-24T23:22:16.311Z,22.53
2024-01-24T23:24:44.523Z,22.52
2024-01-24T23:27:12.774Z,22.50
2024-01-24T23:29:40.946Z,22.49
2024-01-24T23:32:10.487Z,22.47
2024-01-24T23:34:38.823Z,22.47
2024-01-24T23:37:07.126Z,22.47
2024-01-24T23:39:35.386Z,22.48
2024-01-24T23:42:03.619Z,22.48
2024-01-24T23:44:31.789Z,22.48
2024-01-24T23:46:59.913Z,22.48
2024-01-24T23:49:29.777Z,22.47
2024-01-24T23:51:58.208Z,22.48
2024-01-24T23:54:26.460Z,22.48
2024-01-24T23:56:54.641Z,22.47
2024-01-24T23:59:22.820Z,22.48
